createdAt,value
2023-01-08T00:00:06.580Z,0.8
2023-01-08T00:01:05.919Z,0.8
2023-01-08T00:02:06.524Z,0.8
2023-01-08T00:03:06.544Z,0.7
2023-01-08T00:04:06.224Z,0.7
2023-01-08T00:05:06.347Z,0.7
2023-01-08T00:06:06.103Z,0.7
2023-01-08T00:07:05.956Z,0
2023-01-08T00:08:05.229Z,0.7
2023-01-08T00:09:06.385Z,0.7
2023-01-08T00:10:06.327Z,0.7
2023-01-08T00:11:05.995Z,0.6
2023-01-08T00:12:05.947Z,0.6
2023-01-08T00:13:06.174Z,0.6
2023-01-08T00:14:06.253Z,0.6
2023-01-08T00:15:06.219Z,0.6
2023-01-08T00:16:05.887Z,0.6
2023-01-08T00:17:06.262Z,0.6
2023-01-08T00:18:08.831Z,0.6
2023-01-08T00:19:06.009Z,0.6
2023-01-08T00:20:05.874Z,0.6
2023-01-08T00:21:06.092Z,0.6
2023-01-08T00:22:06.355Z,0.6
2023-01-08T00:23:06.222Z,0.6
2023-01-08T00:24:06.549Z,0.6
2023-01-08T00:25:05.834Z,0.6
2023-01-08T00:26:05.774Z,0.6
2023-01-08T00:27:05.818Z,0.5
2023-01-08T00:28:06.393Z,0.6
2023-01-08T00:29:06.299Z,0.6
2023-01-08T00:30:06.586Z,0
2023-01-08T00:31:08.271Z,0.6
2023-01-08T00:32:05.942Z,0.6
2023-01-08T00:33:06.060Z,0.6
2023-01-08T00:34:06.265Z,0.5
2023-01-08T00:35:06.731Z,0.6
2023-01-08T00:36:06.608Z,0.5
2023-01-08T00:37:05.808Z,0.5
2023-01-08T00:38:06.475Z,0.5
2023-01-08T00:39:06.360Z,0.5
2023-01-08T00:40:06.394Z,0.5
2023-01-08T00:41:06.304Z,0.5
2023-01-08T00:42:06.194Z,0.5
2023-01-08T00:43:06.365Z,0.5
2023-01-08T00:44:06.111Z,0.5
2023-01-08T00:45:05.752Z,0.5
2023-01-08T00:46:06.550Z,0.5
2023-01-08T00:47:06.309Z,0.5
2023-01-08T00:48:05.700Z,0.5
2023-01-08T00:49:05.735Z,0.5
2023-01-08T00:50:06.487Z,0.4
2023-01-08T00:51:06.283Z,0.4
2023-01-08T00:52:09.650Z,0.4
2023-01-08T00:53:06.092Z,0.4
2023-01-08T00:54:06.578Z,0
2023-01-08T00:55:06.047Z,0.4
2023-01-08T00:56:06.441Z,0.4
2023-01-08T00:57:05.904Z,0.3
2023-01-08T00:58:05.271Z,0.3
2023-01-08T00:59:05.237Z,0.3
2023-01-08T01:00:06.683Z,0.2
2023-01-08T01:01:06.211Z,0.3
2023-01-08T01:02:06.520Z,0.3
2023-01-08T01:03:06.068Z,0.2
2023-01-08T01:04:06.070Z,0.3
2023-01-08T01:05:05.953Z,0.3
2023-01-08T01:06:05.918Z,0.3
2023-01-08T01:07:06.473Z,0.3
2023-01-08T01:08:06.605Z,0.3
2023-01-08T01:09:05.919Z,-1
2023-01-08T01:10:05.839Z,0.3
2023-01-08T01:11:05.940Z,0.3
2023-01-08T01:12:06.662Z,0.3
2023-01-08T01:13:06.476Z,-1
2023-01-08T01:14:05.923Z,0.3
2023-01-08T01:15:06.368Z,0.2
2023-01-08T01:16:05.880Z,0.3
2023-01-08T01:17:06.168Z,0.3
2023-01-08T01:18:06.594Z,0.3
2023-01-08T01:19:05.918Z,0.3
2023-01-08T01:20:05.868Z,0.3
2023-01-08T01:21:06.495Z,0.3
2023-01-08T01:22:06.474Z,0.3
2023-01-08T01:23:06.195Z,0.2
2023-01-08T01:24:06.291Z,0.2
2023-01-08T01:25:06.601Z,0.3
2023-01-08T01:26:06.578Z,0.3
2023-01-08T01:27:05.879Z,0.3
2023-01-08T01:28:06.500Z,0.3
2023-01-08T01:29:05.682Z,0.4
2023-01-08T01:30:06.661Z,0.4
2023-01-08T01:31:06.666Z,0
2023-01-08T01:32:06.424Z,0.4
2023-01-08T01:33:05.798Z,0.4
2023-01-08T01:34:05.782Z,0.4
2023-01-08T01:35:06.552Z,0.4
2023-01-08T01:36:06.680Z,0.4
2023-01-08T01:37:06.029Z,0.4
2023-01-08T01:38:05.904Z,0.4
2023-01-08T01:39:06.915Z,0
2023-01-08T01:40:06.099Z,0.4
2023-01-08T01:41:05.954Z,0.4
2023-01-08T01:42:06.298Z,0.4
2023-01-08T01:43:06.536Z,0
2023-01-08T01:44:05.765Z,0.4
2023-01-08T01:45:06.101Z,0.4
2023-01-08T01:46:06.950Z,0
2023-01-08T01:47:05.885Z,0.4
2023-01-08T01:48:06.572Z,0.4
2023-01-08T01:49:05.955Z,0.4
2023-01-08T01:50:06.324Z,0.4
2023-01-08T01:51:06.261Z,0.4
2023-01-08T01:52:06.755Z,0.4
2023-01-08T01:53:06.038Z,0
2023-01-08T01:54:05.683Z,0
2023-01-08T01:55:06.194Z,0.4
2023-01-08T01:56:06.327Z,0.4
2023-01-08T01:57:06.548Z,0.4
2023-01-08T01:58:05.811Z,0.4
2023-01-08T01:59:05.977Z,0.4
2023-01-08T02:00:05.963Z,0.3
2023-01-08T02:01:06.256Z,0.4
2023-01-08T02:02:06.308Z,0.4
2023-01-08T02:03:04.907Z,0.4
2023-01-08T02:04:05.607Z,0
2023-01-08T02:05:06.349Z,0.4
2023-01-08T02:06:05.642Z,0.4
2023-01-08T02:07:06.272Z,0.4
2023-01-08T02:08:05.809Z,0.4
2023-01-08T02:09:05.791Z,0.4
2023-01-08T02:10:06.062Z,0.4
2023-01-08T02:11:06.614Z,0.4
2023-01-08T02:12:05.834Z,0.4
2023-01-08T02:13:06.087Z,0.4
2023-01-08T02:14:06.434Z,0.4
2023-01-08T02:15:05.990Z,0.4
2023-01-08T02:16:05.932Z,0
2023-01-08T02:17:06.521Z,0
2023-01-08T02:18:05.960Z,0.4
2023-01-08T02:19:06.320Z,0.4
2023-01-08T02:20:06.268Z,0.4
2023-01-08T02:21:06.539Z,0.4
2023-01-08T02:22:05.774Z,0.4
2023-01-08T02:23:06.049Z,0.4
2023-01-08T02:24:06.159Z,0.4
2023-01-08T02:25:06.415Z,0.4
2023-01-08T02:26:06.214Z,0.4
2023-01-08T02:27:06.652Z,0.4
2023-01-08T02:28:06.375Z,0.3
2023-01-08T02:29:05.598Z,0
2023-01-08T02:30:06.121Z,0.3
2023-01-08T02:31:06.774Z,0.3
2023-01-08T02:32:06.155Z,0.3
2023-01-08T02:33:06.165Z,0.4
2023-01-08T02:34:06.365Z,0.3
2023-01-08T02:35:05.960Z,0.3
2023-01-08T02:36:06.430Z,0.3
2023-01-08T02:37:05.598Z,0.3
2023-01-08T02:38:05.901Z,0.3
2023-01-08T02:39:06.087Z,0.3
2023-01-08T02:40:06.289Z,0.3
2023-01-08T02:41:05.708Z,0
2023-01-08T02:42:05.619Z,0.2
2023-01-08T02:43:05.988Z,0.3
2023-01-08T02:44:06.074Z,0
2023-01-08T02:45:05.931Z,0.3
2023-01-08T02:46:06.453Z,0.3
2023-01-08T02:47:05.871Z,0.2
2023-01-08T02:48:05.928Z,0.2
2023-01-08T02:49:06.294Z,0.2
2023-01-08T02:50:06.091Z,0.2
2023-01-08T02:51:06.304Z,0.2
2023-01-08T02:52:06.176Z,0.2
2023-01-08T02:53:06.374Z,0.1
2023-01-08T02:54:05.718Z,0.1
2023-01-08T02:55:06.105Z,0.1
2023-01-08T02:56:05.806Z,0.1
2023-01-08T02:57:05.918Z,0.1
2023-01-08T02:58:06.042Z,0.1
2023-01-08T02:59:05.974Z,-1
2023-01-08T03:00:05.933Z,0.1
2023-01-08T03:01:06.788Z,0.1
2023-01-08T03:02:06.196Z,0.1
2023-01-08T03:03:06.418Z,-1
2023-01-08T03:04:06.571Z,0
2023-01-08T03:05:06.508Z,0
2023-01-08T03:06:06.306Z,0
2023-01-08T03:07:06.213Z,0
2023-01-08T03:08:06.014Z,0
2023-01-08T03:09:06.501Z,0
2023-01-08T03:10:05.824Z,0
2023-01-08T03:11:06.149Z,0
2023-01-08T03:12:06.122Z,0
2023-01-08T03:13:06.204Z,0
2023-01-08T03:14:06.587Z,0
2023-01-08T03:15:06.088Z,-1
2023-01-08T03:16:05.990Z,0
2023-01-08T03:17:05.924Z,0
2023-01-08T03:18:06.039Z,0
2023-01-08T03:19:06.434Z,0
2023-01-08T03:20:06.226Z,0
2023-01-08T03:21:06.080Z,0
2023-01-08T03:22:06.208Z,-0.1
2023-01-08T03:23:06.617Z,-0.1
2023-01-08T03:24:05.527Z,-0.1
2023-01-08T03:25:04.816Z,-0.1
2023-01-08T03:26:05.715Z,-0.1
2023-01-08T03:27:06.005Z,-0.1
2023-01-08T03:28:06.333Z,-0.1
2023-01-08T03:29:06.297Z,-0.1
2023-01-08T03:30:06.575Z,-0.1
2023-01-08T03:31:06.364Z,-0.2
2023-01-08T03:32:05.913Z,-0.2
2023-01-08T03:33:06.249Z,-0.1
2023-01-08T03:34:06.320Z,-0.1
2023-01-08T03:35:06.498Z,-0.1
2023-01-08T03:36:05.100Z,-0.1
2023-01-08T03:37:06.124Z,-0.1
2023-01-08T03:38:05.944Z,-0.1
2023-01-08T03:39:05.718Z,-0.1
2023-01-08T03:40:06.049Z,-1
2023-01-08T03:41:06.587Z,-0.2
2023-01-08T03:42:06.805Z,-0.1
2023-01-08T03:43:05.995Z,-0.1
2023-01-08T03:44:05.746Z,-0.2
2023-01-08T03:45:05.681Z,-0.2
2023-01-08T03:46:06.031Z,-0.2
2023-01-08T03:47:06.900Z,-0.2
2023-01-08T03:48:05.769Z,-0.1
2023-01-08T03:49:06.210Z,-0.1
2023-01-08T03:50:04.707Z,-0.1
2023-01-08T03:51:06.297Z,-1
2023-01-08T03:52:05.619Z,-0.1
2023-01-08T03:53:05.933Z,-0.2
2023-01-08T03:54:06.531Z,-0.2
2023-01-08T03:55:06.491Z,-0.1
2023-01-08T03:56:05.872Z,-0.1
2023-01-08T03:57:05.986Z,-0.2
2023-01-08T03:58:06.232Z,-0.2
2023-01-08T03:59:06.578Z,-0.2
2023-01-08T04:00:05.868Z,-0.2
2023-01-08T04:01:06.287Z,-0.2
2023-01-08T04:02:06.953Z,-0.2
2023-01-08T04:03:08.811Z,-0.2
2023-01-08T04:04:06.416Z,-0.2
2023-01-08T04:05:06.543Z,-0.3
2023-01-08T04:06:06.473Z,-0.3
2023-01-08T04:07:06.189Z,-0.3
2023-01-08T04:08:05.865Z,-0.3
2023-01-08T04:09:06.192Z,-0.3
2023-01-08T04:10:05.728Z,-0.2
2023-01-08T04:11:06.385Z,-0.2
2023-01-08T04:12:05.796Z,-0.2
2023-01-08T04:13:06.399Z,-0.2
2023-01-08T04:14:05.823Z,-1
2023-01-08T04:15:06.381Z,-0.2
2023-01-08T04:16:06.662Z,-0.2
2023-01-08T04:17:06.457Z,-0.2
2023-01-08T04:18:05.872Z,-0.2
2023-01-08T04:19:06.756Z,-0.2
2023-01-08T04:20:06.430Z,-0.2
2023-01-08T04:21:05.615Z,-0.2
2023-01-08T04:22:05.791Z,-0.2
2023-01-08T04:23:05.984Z,-0.2
2023-01-08T04:24:06.353Z,-0.2
2023-01-08T04:25:05.694Z,-0.2
2023-01-08T04:26:05.813Z,-0.2
2023-01-08T04:27:05.539Z,-1
2023-01-08T04:28:06.494Z,-0.3
2023-01-08T04:29:06.088Z,-0.3
2023-01-08T04:30:06.070Z,-0.3
2023-01-08T04:31:06.033Z,-0.3
2023-01-08T04:32:06.564Z,-0.3
2023-01-08T04:33:05.888Z,-0.4
2023-01-08T04:34:06.339Z,-0.4
2023-01-08T04:35:06.055Z,-0.4
2023-01-08T04:36:06.017Z,-0.4
2023-01-08T04:37:06.077Z,-0.4
2023-01-08T04:38:06.338Z,-1
2023-01-08T04:39:06.561Z,-0.5
2023-01-08T04:40:04.951Z,-0.5
2023-01-08T04:41:06.359Z,-0.5
2023-01-08T04:42:04.874Z,-0.5
2023-01-08T04:43:05.897Z,-0.5
2023-01-08T04:44:06.271Z,-0.6
2023-01-08T04:45:06.031Z,-0.6
2023-01-08T04:46:06.641Z,-0.6
2023-01-08T04:47:06.023Z,-0.6
2023-01-08T04:48:06.582Z,-0.6
2023-01-08T04:49:05.822Z,-0.7
2023-01-08T04:50:06.212Z,-0.7
2023-01-08T04:51:06.284Z,-0.7
2023-01-08T04:52:05.889Z,-2
2023-01-08T04:53:05.533Z,-0.7
2023-01-08T04:54:05.722Z,-0.8
2023-01-08T04:55:06.552Z,-0.7
2023-01-08T04:56:06.527Z,-0.8
2023-01-08T04:57:05.981Z,-0.8
2023-01-08T04:58:06.066Z,-0.8
2023-01-08T04:59:06.001Z,-0.8
2023-01-08T05:00:06.321Z,-0.8
2023-01-08T05:01:06.467Z,-0.8
2023-01-08T05:02:06.151Z,-0.8
2023-01-08T05:03:06.588Z,-0.9
2023-01-08T05:04:05.737Z,-0.9
2023-01-08T05:05:05.975Z,-0.9
2023-01-08T05:06:05.963Z,-0.9
2023-01-08T05:07:06.616Z,-0.9
2023-01-08T05:08:05.874Z,-0.9
2023-01-08T05:09:05.560Z,-1
2023-01-08T05:10:06.280Z,-1
2023-01-08T05:11:06.358Z,-1
2023-01-08T05:12:05.738Z,-1
2023-01-08T05:13:05.852Z,-1
2023-01-08T05:14:05.999Z,-1.1
2023-01-08T05:15:06.424Z,-2
2023-01-08T05:16:07.130Z,-1.1
2023-01-08T05:17:06.259Z,-2
2023-01-08T05:18:05.863Z,-1.1
2023-01-08T05:19:06.315Z,-2
2023-01-08T05:20:05.800Z,-1.1
2023-01-08T05:21:06.139Z,-1.1
2023-01-08T05:22:05.429Z,-1.1
2023-01-08T05:23:05.279Z,-1.1
2023-01-08T05:24:05.813Z,-2
2023-01-08T05:25:06.224Z,-1.1
2023-01-08T05:26:06.380Z,-1.1
2023-01-08T05:27:06.732Z,-1.1
2023-01-08T05:28:06.510Z,-1.1
2023-01-08T05:29:05.908Z,-1.1
2023-01-08T05:30:06.115Z,-1.1
2023-01-08T05:31:06.541Z,-1.1
2023-01-08T05:32:06.007Z,-1.1
2023-01-08T05:33:06.293Z,-1.1
2023-01-08T05:34:05.477Z,-1.1
2023-01-08T05:35:04.906Z,-1.1
2023-01-08T05:36:06.202Z,-1.1
2023-01-08T05:37:06.176Z,-1.1
2023-01-08T05:38:05.802Z,-1.1
2023-01-08T05:39:06.347Z,-2
2023-01-08T05:40:06.696Z,-2
2023-01-08T05:41:06.565Z,-1.2
2023-01-08T05:42:05.590Z,-1.2
2023-01-08T05:43:06.375Z,-1.2
2023-01-08T05:44:06.483Z,-1.2
2023-01-08T05:45:05.867Z,-1.2
2023-01-08T05:46:05.277Z,-1.2
2023-01-08T05:47:06.201Z,-2
2023-01-08T05:48:05.908Z,-1.2
2023-01-08T05:49:05.878Z,-1.2
2023-01-08T05:50:06.131Z,-2
2023-01-08T05:51:05.805Z,-1.2
2023-01-08T05:52:06.022Z,-1.2
2023-01-08T05:53:06.151Z,-1.2
2023-01-08T05:54:06.507Z,-1.2
2023-01-08T05:55:06.113Z,-2
2023-01-08T05:56:08.239Z,-1.2
2023-01-08T05:57:06.296Z,-1.2
2023-01-08T05:58:06.173Z,-1.2
2023-01-08T05:59:05.234Z,-1.2
2023-01-08T06:00:06.539Z,-1.2
2023-01-08T06:01:06.029Z,-1.2
2023-01-08T06:02:04.766Z,-1.2
2023-01-08T06:03:06.751Z,-1.2
2023-01-08T06:04:05.932Z,-1.2
2023-01-08T06:05:06.543Z,-1.2
2023-01-08T06:06:05.835Z,-1.2
2023-01-08T06:07:05.936Z,-1.2
2023-01-08T06:08:08.495Z,-1.2
2023-01-08T06:09:05.774Z,-1.2
2023-01-08T06:10:06.144Z,-1.2
2023-01-08T06:11:06.339Z,-2
2023-01-08T06:12:06.098Z,-2
2023-01-08T06:13:06.179Z,-1.2
2023-01-08T06:14:06.502Z,-1.2
2023-01-08T06:15:06.215Z,-1.2
2023-01-08T06:16:06.486Z,-1.2
2023-01-08T06:17:06.204Z,-1.2
2023-01-08T06:18:06.258Z,-1.2
2023-01-08T06:19:05.476Z,-1.2
2023-01-08T06:20:06.621Z,-1.2
2023-01-08T06:21:05.773Z,-1.2
2023-01-08T06:22:06.162Z,-1.3
2023-01-08T06:23:05.799Z,-1.3
2023-01-08T06:24:06.104Z,-2
2023-01-08T06:25:04.869Z,-2
2023-01-08T06:26:06.519Z,-2
2023-01-08T06:27:06.723Z,-2
2023-01-08T06:28:05.137Z,-1.3
2023-01-08T06:29:05.643Z,-1.3
2023-01-08T06:30:05.850Z,-1.4
2023-01-08T06:31:06.148Z,-1.4
2023-01-08T06:32:05.594Z,-1.4
2023-01-08T06:33:05.982Z,-1.4
2023-01-08T06:34:06.195Z,-1.4
2023-01-08T06:35:06.641Z,-1.4
2023-01-08T06:36:06.104Z,-1.4
2023-01-08T06:37:06.018Z,-1.4
2023-01-08T06:38:06.147Z,-1.4
2023-01-08T06:39:06.535Z,-1.4
2023-01-08T06:40:05.999Z,-1.4
2023-01-08T06:41:06.127Z,-2
2023-01-08T06:42:05.169Z,-2
2023-01-08T06:43:06.010Z,-1.4
2023-01-08T06:44:05.977Z,-1.4
2023-01-08T06:45:05.398Z,-1.4
2023-01-08T06:46:06.266Z,-1.4
2023-01-08T06:47:06.364Z,-2
2023-01-08T06:48:06.677Z,-1.4
2023-01-08T06:49:04.786Z,-1.4
2023-01-08T06:50:06.262Z,-1.4
2023-01-08T06:51:05.442Z,-1.4
2023-01-08T06:52:06.426Z,-1.3
2023-01-08T06:53:06.305Z,-1.3
2023-01-08T06:54:06.003Z,-1.4
2023-01-08T06:55:06.160Z,-1.4
2023-01-08T06:56:06.309Z,-1.3
2023-01-08T06:57:06.147Z,-1.3
2023-01-08T06:58:06.473Z,-1.4
2023-01-08T06:59:06.764Z,-1.4
2023-01-08T07:00:05.748Z,-1.3
2023-01-08T07:01:06.544Z,-1.3
2023-01-08T07:02:06.240Z,-1.3
2023-01-08T07:03:06.420Z,-1.3
2023-01-08T07:04:06.370Z,-1.3
2023-01-08T07:05:05.901Z,-1.3
2023-01-08T07:06:05.552Z,-1.3
2023-01-08T07:07:06.686Z,-1.2
2023-01-08T07:08:06.285Z,-1.2
2023-01-08T07:09:06.006Z,-1.3
2023-01-08T07:10:06.307Z,-2
2023-01-08T07:11:06.090Z,-1.2
2023-01-08T07:12:06.337Z,-1.2
2023-01-08T07:13:06.598Z,-1.2
2023-01-08T07:14:06.235Z,-1.2
2023-01-08T07:15:06.045Z,-1.2
2023-01-08T07:16:06.385Z,-1.2
2023-01-08T07:17:06.134Z,-1.2
2023-01-08T07:18:06.523Z,-1.2
2023-01-08T07:19:05.388Z,-1.2
2023-01-08T07:20:05.631Z,-1.2
2023-01-08T07:21:06.620Z,-2
2023-01-08T07:22:06.542Z,-1.2
2023-01-08T07:23:06.573Z,-1.2
2023-01-08T07:24:06.347Z,-1.2
2023-01-08T07:25:05.803Z,-1.2
2023-01-08T07:26:06.102Z,-1.2
2023-01-08T07:27:05.765Z,-1.2
2023-01-08T07:28:06.137Z,-1.2
2023-01-08T07:29:05.677Z,-1.2
2023-01-08T07:30:07.379Z,-1.1
2023-01-08T07:31:05.730Z,-1.2
2023-01-08T07:32:05.862Z,-1.2
2023-01-08T07:33:06.603Z,-1.1
2023-01-08T07:34:05.878Z,-2
2023-01-08T07:35:06.005Z,-1.1
2023-01-08T07:36:06.073Z,-1.1
2023-01-08T07:37:06.269Z,-1.1
2023-01-08T07:38:06.517Z,-1.1
2023-01-08T07:39:05.972Z,-1
2023-01-08T07:40:06.418Z,-1
2023-01-08T07:41:06.287Z,-1
2023-01-08T07:42:06.584Z,-1
2023-01-08T07:43:05.964Z,-1
2023-01-08T07:44:04.936Z,-1
2023-01-08T07:45:06.188Z,-2
2023-01-08T07:46:04.888Z,-1
2023-01-08T07:47:06.470Z,-1
2023-01-08T07:48:06.473Z,-1
2023-01-08T07:49:05.855Z,-0.9
2023-01-08T07:50:05.835Z,-0.9
2023-01-08T07:51:06.141Z,-0.8
2023-01-08T07:52:06.225Z,-0.8
2023-01-08T07:53:06.617Z,-0.8
2023-01-08T07:54:05.670Z,-0.8
2023-01-08T07:55:06.143Z,-1
2023-01-08T07:56:05.904Z,-0.7
2023-01-08T07:57:06.235Z,-1
2023-01-08T07:58:06.383Z,-0.7
2023-01-08T07:59:05.197Z,-1
2023-01-08T08:00:05.572Z,-0.6
2023-01-08T08:01:04.739Z,-0.6
2023-01-08T08:02:06.993Z,-0.6
2023-01-08T08:03:06.719Z,-0.6
2023-01-08T08:04:05.889Z,-0.5
2023-01-08T08:05:06.100Z,-0.5
2023-01-08T08:06:06.049Z,-0.5
2023-01-08T08:07:06.372Z,-0.5
2023-01-08T08:08:06.602Z,-0.5
2023-01-08T08:09:05.895Z,-1
2023-01-08T08:10:06.277Z,-1
2023-01-08T08:11:05.842Z,-1
2023-01-08T08:12:06.592Z,-0.4
2023-01-08T08:13:05.796Z,-1
2023-01-08T08:14:05.617Z,-1
2023-01-08T08:15:06.192Z,-0.3
2023-01-08T08:16:06.085Z,-0.2
2023-01-08T08:17:06.272Z,-1
2023-01-08T08:18:05.847Z,-0.2
2023-01-08T08:19:06.204Z,-0.2
2023-01-08T08:20:06.446Z,-0.2
2023-01-08T08:21:05.832Z,-0.2
2023-01-08T08:22:06.209Z,-0.1
2023-01-08T08:23:06.517Z,-0.1
2023-01-08T08:24:05.564Z,-0.1
2023-01-08T08:25:04.945Z,-1
2023-01-08T08:26:06.397Z,-0.1
2023-01-08T08:27:05.783Z,-0.1
2023-01-08T08:28:06.812Z,-0.1
2023-01-08T08:29:05.755Z,-0.1
2023-01-08T08:30:06.070Z,0
2023-01-08T08:31:06.299Z,0
2023-01-08T08:32:06.335Z,0
2023-01-08T08:33:05.728Z,0
2023-01-08T08:34:06.349Z,0
2023-01-08T08:35:05.954Z,0
2023-01-08T08:36:06.011Z,0
2023-01-08T08:37:05.634Z,0
2023-01-08T08:38:05.301Z,0
2023-01-08T08:39:06.649Z,0
2023-01-08T08:40:04.983Z,0
2023-01-08T08:41:05.923Z,0.1
2023-01-08T08:42:06.155Z,-1
2023-01-08T08:43:06.569Z,-1
2023-01-08T08:44:06.127Z,0.1
2023-01-08T08:45:05.693Z,0.1
2023-01-08T08:46:05.828Z,0.2
2023-01-08T08:47:06.050Z,0.2
2023-01-08T08:48:06.156Z,0.2
2023-01-08T08:49:05.661Z,0.2
2023-01-08T08:50:05.955Z,0.2
2023-01-08T08:51:06.130Z,0.3
2023-01-08T08:52:06.244Z,0.3
2023-01-08T08:53:05.641Z,0.3
2023-01-08T08:54:06.590Z,0.4
2023-01-08T08:55:05.956Z,0
2023-01-08T08:56:05.927Z,0.4
2023-01-08T08:57:05.597Z,0.5
2023-01-08T08:58:05.690Z,0.5
2023-01-08T08:59:05.972Z,0.5
2023-01-08T09:00:06.474Z,0.6
2023-01-08T09:01:06.145Z,0.6
2023-01-08T09:02:07.262Z,0.6
2023-01-08T09:03:06.942Z,0.6
2023-01-08T09:04:06.191Z,0.7
2023-01-08T09:05:06.576Z,0.7
2023-01-08T09:06:05.891Z,0.8
2023-01-08T09:07:06.106Z,0.8
2023-01-08T09:08:06.045Z,0.8
2023-01-08T09:09:05.864Z,0.9
2023-01-08T09:10:06.183Z,0.9
2023-01-08T09:11:06.393Z,0.9
2023-01-08T09:12:05.866Z,1
2023-01-08T09:13:06.062Z,1.1
2023-01-08T09:14:04.709Z,1.1
2023-01-08T09:15:05.608Z,1.2
2023-01-08T09:16:06.506Z,1.1
2023-01-08T09:17:06.322Z,1.1
2023-01-08T09:18:06.118Z,1.2
2023-01-08T09:19:05.988Z,1.2
2023-01-08T09:20:06.304Z,1.3
2023-01-08T09:21:06.701Z,1.3
2023-01-08T09:22:06.205Z,1.3
2023-01-08T09:23:06.783Z,1.3
2023-01-08T09:24:05.936Z,1.4
2023-01-08T09:25:06.270Z,1.4
2023-01-08T09:26:06.428Z,1.6
2023-01-08T09:27:06.175Z,1.5
2023-01-08T09:28:05.687Z,1.6
2023-01-08T09:29:06.330Z,1.6
2023-01-08T09:30:05.905Z,1.6
2023-01-08T09:31:05.919Z,1.7
2023-01-08T09:32:05.963Z,1.7
2023-01-08T09:33:07.220Z,1.8
2023-01-08T09:34:06.450Z,1.8
2023-01-08T09:35:06.396Z,1.9
2023-01-08T09:36:06.117Z,1.9
2023-01-08T09:37:06.417Z,2
2023-01-08T09:38:06.529Z,2.1
2023-01-08T09:39:05.960Z,2.1
2023-01-08T09:40:07.493Z,2.1
2023-01-08T09:41:06.481Z,2.2
2023-01-08T09:42:06.034Z,1
2023-01-08T09:43:06.446Z,2.4
2023-01-08T09:44:05.726Z,2.4
2023-01-08T09:45:06.020Z,2.5
2023-01-08T09:46:05.780Z,2.5
2023-01-08T09:47:06.358Z,2.6
2023-01-08T09:48:06.420Z,2.6
2023-01-08T09:49:05.927Z,2.8
2023-01-08T09:50:06.673Z,2.9
2023-01-08T09:51:06.560Z,3
2023-01-08T09:52:05.962Z,3
2023-01-08T09:53:06.251Z,3.1
2023-01-08T09:54:05.607Z,1
2023-01-08T09:55:06.346Z,1
2023-01-08T09:56:13.966Z,3.2
2023-01-08T09:57:05.717Z,3.3
2023-01-08T09:58:07.334Z,3.3
2023-01-08T09:59:06.224Z,3.3
2023-01-08T10:00:06.463Z,3.3
2023-01-08T10:01:07.035Z,3.3
2023-01-08T10:02:06.951Z,3.4
2023-01-08T10:03:06.677Z,2
2023-01-08T10:04:05.787Z,3.4
2023-01-08T10:05:06.626Z,3.4
2023-01-08T10:06:06.043Z,3.4
2023-01-08T10:07:06.249Z,3.4
2023-01-08T10:08:06.619Z,3.4
2023-01-08T10:09:09.598Z,3.4
2023-01-08T10:10:06.518Z,3.4
2023-01-08T10:11:06.099Z,3.4
2023-01-08T10:12:05.834Z,3.4
2023-01-08T10:13:06.356Z,3.4
2023-01-08T10:14:05.684Z,3.4
2023-01-08T10:15:06.078Z,3.4
2023-01-08T10:16:06.048Z,3.5
2023-01-08T10:17:09.429Z,3.5
2023-01-08T10:18:05.785Z,3.5
2023-01-08T10:19:05.801Z,3.5
2023-01-08T10:20:06.400Z,2
2023-01-08T10:21:06.573Z,2
2023-01-08T10:22:05.837Z,3.5
2023-01-08T10:23:05.800Z,3.5
2023-01-08T10:24:05.544Z,3.5
2023-01-08T10:25:05.758Z,3.4
2023-01-08T10:26:06.143Z,3.4
2023-01-08T10:27:06.953Z,3.4
2023-01-08T10:28:05.766Z,3.4
2023-01-08T10:29:06.204Z,3.4
2023-01-08T10:30:05.761Z,3.4
2023-01-08T10:31:06.645Z,3.4
2023-01-08T10:32:05.811Z,3.4
2023-01-08T10:33:05.933Z,3.4
2023-01-08T10:34:06.183Z,3.3
2023-01-08T10:35:06.597Z,3.3
2023-01-08T10:36:05.677Z,3.3
2023-01-08T10:37:05.778Z,3.4
2023-01-08T10:38:06.056Z,3.4
2023-01-08T10:39:06.452Z,3.4
2023-01-08T10:40:06.571Z,3.5
2023-01-08T10:41:06.145Z,3.5
2023-01-08T10:42:06.486Z,3.6
2023-01-08T10:43:06.511Z,3.6
2023-01-08T10:44:05.892Z,3.7
2023-01-08T10:45:09.969Z,2
2023-01-08T10:46:06.754Z,3.8
2023-01-08T10:47:05.640Z,3.9
2023-01-08T10:48:06.043Z,4
2023-01-08T10:49:06.171Z,4
2023-01-08T10:50:05.324Z,4.1
2023-01-08T10:51:07.712Z,4.1
2023-01-08T10:52:06.744Z,4.1
2023-01-08T10:53:06.361Z,3
2023-01-08T10:54:05.742Z,4.2
2023-01-08T10:55:06.064Z,4.3
2023-01-08T10:56:05.748Z,4.3
2023-01-08T10:57:06.880Z,4.4
2023-01-08T10:58:06.435Z,4.4
2023-01-08T10:59:05.806Z,4.4
2023-01-08T11:00:05.958Z,4.4
2023-01-08T11:01:05.797Z,4.5
2023-01-08T11:02:06.815Z,4.6
2023-01-08T11:03:06.553Z,4.6
2023-01-08T11:04:05.909Z,4.6
2023-01-08T11:05:06.220Z,4.6
2023-01-08T11:06:04.944Z,4.6
2023-01-08T11:07:05.212Z,4.6
2023-01-08T11:08:05.852Z,4.6
2023-01-08T11:09:06.081Z,4.6
2023-01-08T11:10:06.013Z,4.6
2023-01-08T11:11:05.538Z,4.7
2023-01-08T11:12:06.284Z,4.7
2023-01-08T11:13:06.428Z,3
2023-01-08T11:14:05.866Z,4.7
2023-01-08T11:15:06.001Z,4.8
2023-01-08T11:16:06.647Z,4.8
2023-01-08T11:17:06.303Z,4.8
2023-01-08T11:18:05.705Z,4.8
2023-01-08T11:19:05.613Z,4.8
2023-01-08T11:20:05.545Z,4.8
2023-01-08T11:21:05.943Z,4.8
2023-01-08T11:22:06.393Z,4.9
2023-01-08T11:23:06.561Z,4.9
2023-01-08T11:24:05.138Z,4.9
2023-01-08T11:25:06.191Z,4.8
2023-01-08T11:26:06.307Z,4.8
2023-01-08T11:27:06.632Z,4.8
2023-01-08T11:28:05.889Z,4.9
2023-01-08T11:29:05.890Z,4.9
2023-01-08T11:30:06.584Z,4.9
2023-01-08T11:31:06.424Z,4.9
2023-01-08T11:32:05.330Z,4.8
2023-01-08T11:33:06.661Z,4.8
2023-01-08T11:34:06.238Z,4.8
2023-01-08T11:35:06.127Z,4.8
2023-01-08T11:36:05.887Z,4.8
2023-01-08T11:37:06.148Z,4.8
2023-01-08T11:38:05.738Z,4.8
2023-01-08T11:39:06.072Z,4.9
2023-01-08T11:40:06.415Z,4.8
2023-01-08T11:41:05.766Z,4.9
2023-01-08T11:42:05.721Z,4.9
2023-01-08T11:43:05.602Z,4.9
2023-01-08T11:44:05.062Z,4.9
2023-01-08T11:45:06.203Z,4.9
2023-01-08T11:46:06.192Z,4.9
2023-01-08T11:47:06.469Z,4.8
2023-01-08T11:48:05.776Z,4.9
2023-01-08T11:49:06.494Z,4.9
2023-01-08T11:50:06.355Z,4.8
2023-01-08T11:51:05.955Z,4.8
2023-01-08T11:52:05.677Z,4
2023-01-08T11:53:05.786Z,4.8
2023-01-08T11:54:06.251Z,4.8
2023-01-08T11:55:06.232Z,4.8
2023-01-08T11:56:05.412Z,4
2023-01-08T11:57:06.731Z,4.8
2023-01-08T11:58:05.937Z,4.8
2023-01-08T11:59:06.516Z,4.8
2023-01-08T12:00:06.500Z,4.8
2023-01-08T12:01:05.755Z,4.8
2023-01-08T12:02:05.969Z,4.8
2023-01-08T12:03:06.358Z,4.9
2023-01-08T12:04:06.492Z,4.9
2023-01-08T12:05:05.739Z,4.9
2023-01-08T12:06:06.175Z,4.9
2023-01-08T12:07:05.209Z,4.9
2023-01-08T12:08:04.683Z,4.9
2023-01-08T12:09:06.490Z,5
2023-01-08T12:10:06.251Z,4.9
2023-01-08T12:11:06.555Z,4.9
2023-01-08T12:12:06.625Z,4.9
2023-01-08T12:13:06.518Z,4.9
2023-01-08T12:14:05.997Z,4.9
2023-01-08T12:15:05.833Z,5
2023-01-08T12:16:06.319Z,5
2023-01-08T12:17:06.595Z,4.9
2023-01-08T12:18:05.985Z,4.9
2023-01-08T12:19:06.364Z,5
2023-01-08T12:20:05.728Z,5
2023-01-08T12:21:05.734Z,4.9
2023-01-08T12:22:05.853Z,4.9
2023-01-08T12:23:06.234Z,4.9
2023-01-08T12:24:05.013Z,4.9
2023-01-08T12:25:06.449Z,5
2023-01-08T12:26:06.309Z,5
2023-01-08T12:27:05.983Z,5
2023-01-08T12:28:06.571Z,5
2023-01-08T12:29:06.164Z,5
2023-01-08T12:30:06.722Z,5.2
2023-01-08T12:31:06.576Z,5.2
2023-01-08T12:32:09.368Z,5.1
2023-01-08T12:33:06.343Z,5.2
2023-01-08T12:34:06.688Z,5.2
2023-01-08T12:35:06.071Z,5.2
2023-01-08T12:36:06.175Z,5.2
2023-01-08T12:37:05.681Z,5.2
2023-01-08T12:38:05.920Z,5.2
2023-01-08T12:39:06.177Z,5.2
2023-01-08T12:40:06.466Z,5.1
2023-01-08T12:41:06.096Z,5.1
2023-01-08T12:42:06.391Z,5.1
2023-01-08T12:43:08.004Z,5.1
2023-01-08T12:44:05.923Z,5
2023-01-08T12:45:06.490Z,5
2023-01-08T12:46:06.515Z,4.9
2023-01-08T12:47:06.136Z,4.9
2023-01-08T12:48:06.652Z,4.9
2023-01-08T12:49:06.016Z,4.9
2023-01-08T12:50:06.395Z,4.8
2023-01-08T12:51:06.521Z,4.8
2023-01-08T12:52:06.604Z,5
2023-01-08T12:53:06.142Z,4.8
2023-01-08T12:54:06.454Z,4.8
2023-01-08T12:55:06.181Z,4.8
2023-01-08T12:56:05.523Z,4.8
2023-01-08T12:57:04.704Z,4.8
2023-01-08T12:58:06.450Z,4.8
2023-01-08T12:59:05.699Z,4.7
2023-01-08T13:00:05.303Z,4.7
2023-01-08T13:01:05.275Z,4.7
2023-01-08T13:02:06.670Z,4.7
2023-01-08T13:03:05.821Z,4
2023-01-08T13:04:05.757Z,4.7
2023-01-08T13:05:06.158Z,4.7
2023-01-08T13:06:06.593Z,4.7
2023-01-08T13:07:05.838Z,4.7
2023-01-08T13:08:05.740Z,4.7
2023-01-08T13:09:06.332Z,4.7
2023-01-08T13:10:05.727Z,4.7
2023-01-08T13:11:06.420Z,4.7
2023-01-08T13:12:06.015Z,4.7
2023-01-08T13:13:06.389Z,4.6
2023-01-08T13:14:06.316Z,4.6
2023-01-08T13:15:05.964Z,4.6
2023-01-08T13:16:05.915Z,4.6
2023-01-08T13:17:06.185Z,4.6
2023-01-08T13:18:05.952Z,4.6
2023-01-08T13:19:05.744Z,4.5
2023-01-08T13:20:06.023Z,4.5
2023-01-08T13:21:06.330Z,4.5
2023-01-08T13:22:05.598Z,4
2023-01-08T13:23:06.027Z,4
2023-01-08T13:24:06.247Z,4.5
2023-01-08T13:25:06.556Z,4.4
2023-01-08T13:26:06.114Z,4.5
2023-01-08T13:27:06.371Z,4
2023-01-08T13:28:06.514Z,4.4
2023-01-08T13:29:05.684Z,4.4
2023-01-08T13:30:06.193Z,4.4
2023-01-08T13:31:05.817Z,4.4
2023-01-08T13:32:05.991Z,4.4
2023-01-08T13:33:06.032Z,4.4
2023-01-08T13:34:06.421Z,4.4
2023-01-08T13:35:05.770Z,4.4
2023-01-08T13:36:06.230Z,4.4
2023-01-08T13:37:11.349Z,4.3
2023-01-08T13:38:06.263Z,4.3
2023-01-08T13:39:06.783Z,4.3
2023-01-08T13:40:05.202Z,4.3
2023-01-08T13:41:05.836Z,4.3
2023-01-08T13:42:05.547Z,4.2
2023-01-08T13:43:05.658Z,4.2
2023-01-08T13:44:05.984Z,4.3